sensor_id;sensor_type;location;lat;lon;timestamp;pressure;altitude;pressure_sealevel;temperature;humidity
67517;BME280;54359;59.124;37.910;2023-01-28T00:00:34;100683.59;;;-3.73;85.15
67517;BME280;54359;59.124;37.910;2023-01-28T00:03:00;100690.00;;;-3.76;85.00
67517;BME280;54359;59.124;37.910;2023-01-28T00:05:26;100685.63;;;-3.79;84.94
67517;BME280;54359;59.124;37.910;2023-01-28T00:07:54;100684.63;;;-3.81;85.11
67517;BME280;54359;59.124;37.910;2023-01-28T00:10:20;100687.88;;;-3.82;84.55
67517;BME280;54359;59.124;37.910;2023-01-28T00:12:46;100684.38;;;-3.84;84.67
67517;BME280;54359;59.124;37.910;2023-01-28T00:15:12;100675.75;;;-3.88;84.58
67517;BME280;54359;59.124;37.910;2023-01-28T00:17:38;100676.47;;;-3.89;85.56
67517;BME280;54359;59.124;37.910;2023-01-28T00:20:05;100673.31;;;-3.86;85.47
67517;BME280;54359;59.124;37.910;2023-01-28T00:22:31;100674.31;;;-3.84;85.32
67517;BME280;54359;59.124;37.910;2023-01-28T00:24:57;100680.88;;;-3.86;84.90
67517;BME280;54359;59.124;37.910;2023-01-28T00:27:23;100667.94;;;-3.91;85.29
67517;BME280;54359;59.124;37.910;2023-01-28T00:29:49;100659.31;;;-4.05;85.11
67517;BME280;54359;59.124;37.910;2023-01-28T00:32:15;100677.50;;;-3.97;84.65
67517;BME280;54359;59.124;37.910;2023-01-28T00:34:41;100664.59;;;-4.01;85.60
67517;BME280;54359;59.124;37.910;2023-01-28T00:37:07;100670.50;;;-4.01;84.75
67517;BME280;54359;59.124;37.910;2023-01-28T00:39:32;100658.31;;;-4.07;85.33
67517;BME280;54359;59.124;37.910;2023-01-28T00:42:00;100667.25;;;-4.00;85.35
67517;BME280;54359;59.124;37.910;2023-01-28T00:44:25;100667.84;;;-4.02;85.19
67517;BME280;54359;59.124;37.910;2023-01-28T00:46:51;100662.97;;;-4.11;85.37
67517;BME280;54359;59.124;37.910;2023-01-28T00:49:21;100667.13;;;-4.12;84.92
67517;BME280;54359;59.124;37.910;2023-01-28T00:51:46;100661.75;;;-4.16;85.08
67517;BME280;54359;59.124;37.910;2023-01-28T00:54:14;100663.00;;;-4.21;85.29
67517;BME280;54359;59.124;37.910;2023-01-28T00:56:40;100656.25;;;-4.22;85.43
67517;BME280;54359;59.124;37.910;2023-01-28T00:59:06;100659.63;;;-4.22;85.48
67517;BME280;54359;59.124;37.910;2023-01-28T01:01:32;100659.50;;;-4.23;85.60
67517;BME280;54359;59.124;37.910;2023-01-28T01:03:58;100656.13;;;-4.24;85.26
67517;BME280;54359;59.124;37.910;2023-01-28T01:06:35;100639.44;;;-4.34;85.46
67517;BME280;54359;59.124;37.910;2023-01-28T01:09:04;100666.03;;;-4.26;85.56
67517;BME280;54359;59.124;37.910;2023-01-28T01:11:31;100660.00;;;-4.28;85.75
67517;BME280;54359;59.124;37.910;2023-01-28T01:13:58;100653.47;;;-4.26;85.56
67517;BME280;54359;59.124;37.910;2023-01-28T01:16:27;100658.38;;;-4.27;85.50
67517;BME280;54359;59.124;37.910;2023-01-28T01:18:53;100656.38;;;-4.31;86.00
67517;BME280;54359;59.124;37.910;2023-01-28T01:21:21;100658.88;;;-4.31;85.49
67517;BME280;54359;59.124;37.910;2023-01-28T01:23:48;100658.78;;;-4.33;85.20
67517;BME280;54359;59.124;37.910;2023-01-28T01:26:14;100635.56;;;-4.40;85.37
67517;BME280;54359;59.124;37.910;2023-01-28T01:28:40;100663.03;;;-4.32;85.09
67517;BME280;54359;59.124;37.910;2023-01-28T01:31:11;100663.66;;;-4.34;85.00
67517;BME280;54359;59.124;37.910;2023-01-28T01:33:39;100666.03;;;-4.36;85.56
67517;BME280;54359;59.124;37.910;2023-01-28T01:36:06;100653.75;;;-4.43;85.79
67517;BME280;54359;59.124;37.910;2023-01-28T01:38:32;100665.81;;;-4.39;85.35
67517;BME280;54359;59.124;37.910;2023-01-28T01:40:59;100668.31;;;-4.39;85.30
67517;BME280;54359;59.124;37.910;2023-01-28T01:46:19;100666.53;;;-4.40;85.57
67517;BME280;54359;59.124;37.910;2023-01-28T01:48:47;100667.19;;;-4.42;85.46
67517;BME280;54359;59.124;37.910;2023-01-28T01:51:16;100670.06;;;-4.38;85.41
67517;BME280;54359;59.124;37.910;2023-01-28T01:53:47;100676.94;;;-4.35;85.83
67517;BME280;54359;59.124;37.910;2023-01-28T01:56:16;100679.84;;;-4.31;85.56
67517;BME280;54359;59.124;37.910;2023-01-28T01:58:45;100663.03;;;-4.42;85.07
67517;BME280;54359;59.124;37.910;2023-01-28T02:01:13;100672.34;;;-4.41;85.77
67517;BME280;54359;59.124;37.910;2023-01-28T02:03:54;100675.59;;;-4.42;85.26
67517;BME280;54359;59.124;37.910;2023-01-28T02:06:22;100665.03;;;-4.48;85.14
67517;BME280;54359;59.124;37.910;2023-01-28T02:08:49;100666.69;;;-4.49;85.57
67517;BME280;54359;59.124;37.910;2023-01-28T02:11:18;100667.56;;;-4.48;85.94
67517;BME280;54359;59.124;37.910;2023-01-28T02:13:47;100662.66;;;-4.47;85.62
67517;BME280;54359;59.124;37.910;2023-01-28T02:16:15;100671.06;;;-4.46;85.17
67517;BME280;54359;59.124;37.910;2023-01-28T02:18:41;100662.81;;;-4.55;85.07
67517;BME280;54359;59.124;37.910;2023-01-28T02:37:20;100674.84;;;-4.51;85.48
67517;BME280;54359;59.124;37.910;2023-01-28T02:39:50;100670.06;;;-4.58;85.70
67517;BME280;54359;59.124;37.910;2023-01-28T02:42:22;100678.59;;;-4.56;85.58
67517;BME280;54359;59.124;37.910;2023-01-28T02:44:49;100678.09;;;-4.62;85.22
67517;BME280;54359;59.124;37.910;2023-01-28T02:47:15;100677.88;;;-4.66;85.57
67517;BME280;54359;59.124;37.910;2023-01-28T02:50:07;100686.75;;;-4.69;85.54
67517;BME280;54359;59.124;37.910;2023-01-28T02:55:52;100687.97;;;-4.85;85.21
67517;BME280;54359;59.124;37.910;2023-01-28T03:07:02;100688.97;;;-5.03;85.84
67517;BME280;54359;59.124;37.910;2023-01-28T03:09:31;100689.06;;;-5.12;85.09
67517;BME280;54359;59.124;37.910;2023-01-28T03:12:13;100686.06;;;-5.18;85.73
67517;BME280;54359;59.124;37.910;2023-01-28T03:15:05;100696.44;;;-5.23;85.43
67517;BME280;54359;59.124;37.910;2023-01-28T03:17:57;100687.00;;;-5.36;84.99
67517;BME280;54359;59.124;37.910;2023-01-28T03:21:10;100691.97;;;-5.47;85.45
67517;BME280;54359;59.124;37.910;2023-01-28T03:24:14;100684.28;;;-5.58;84.92
67517;BME280;54359;59.124;37.910;2023-01-28T03:30:11;100669.97;;;-5.70;85.91
67517;BME280;54359;59.124;37.910;2023-01-28T03:33:03;100672.63;;;-5.68;85.67
67517;BME280;54359;59.124;37.910;2023-01-28T03:35:54;100676.47;;;-5.72;84.88
67517;BME280;54359;59.124;37.910;2023-01-28T03:38:41;100677.22;;;-5.73;85.74
67517;BME280;54359;59.124;37.910;2023-01-28T03:41:20;100677.97;;;-5.74;85.95
67517;BME280;54359;59.124;37.910;2023-01-28T03:43:47;100671.69;;;-5.79;85.52
67517;BME280;54359;59.124;37.910;2023-01-28T03:46:13;100676.97;;;-5.76;86.33
67517;BME280;54359;59.124;37.910;2023-01-28T03:48:39;100669.59;;;-5.74;85.25
67517;BME280;54359;59.124;37.910;2023-01-28T03:51:07;100676.34;;;-5.73;85.23
67517;BME280;54359;59.124;37.910;2023-01-28T03:53:33;100646.53;;;-5.80;85.68
67517;BME280;54359;59.124;37.910;2023-01-28T03:55:59;100652.31;;;-5.71;86.29
67517;BME280;54359;59.124;37.910;2023-01-28T03:58:25;100667.13;;;-5.64;85.51
67517;BME280;54359;59.124;37.910;2023-01-28T04:01:12;100661.84;;;-5.67;85.97
67517;BME280;54359;59.124;37.910;2023-01-28T04:03:38;100669.88;;;-5.61;85.68
67517;BME280;54359;59.124;37.910;2023-01-28T04:06:09;100655.63;;;-5.62;86.36
67517;BME280;54359;59.124;37.910;2023-01-28T04:08:54;100661.63;;;-5.60;86.20
67517;BME280;54359;59.124;37.910;2023-01-28T04:11:29;100640.66;;;-5.71;85.31
67517;BME280;54359;59.124;37.910;2023-01-28T04:13:56;100662.13;;;-5.64;85.99
67517;BME280;54359;59.124;37.910;2023-01-28T04:16:23;100662.00;;;-5.66;85.82
67517;BME280;54359;59.124;37.910;2023-01-28T04:18:49;100645.16;;;-5.77;85.80
67517;BME280;54359;59.124;37.910;2023-01-28T04:21:16;100655.78;;;-5.79;85.42
67517;BME280;54359;59.124;37.910;2023-01-28T04:23:43;100649.16;;;-5.79;85.95
67517;BME280;54359;59.124;37.910;2023-01-28T04:26:11;100654.63;;;-5.83;86.09
67517;BME280;54359;59.124;37.910;2023-01-28T04:28:37;100646.88;;;-5.86;85.88
67517;BME280;54359;59.124;37.910;2023-01-28T04:31:03;100652.28;;;-5.81;86.45
67517;BME280;54359;59.124;37.910;2023-01-28T04:33:40;100656.06;;;-5.76;86.34
67517;BME280;54359;59.124;37.910;2023-01-28T04:36:18;100651.78;;;-5.77;85.68
67517;BME280;54359;59.124;37.910;2023-01-28T04:39:05;100643.94;;;-5.72;86.71
67517;BME280;54359;59.124;37.910;2023-01-28T04:41:45;100640.81;;;-5.69;86.16
67517;BME280;54359;59.124;37.910;2023-01-28T04:44:22;100638.56;;;-5.66;85.20
67517;BME280;54359;59.124;37.910;2023-01-28T04:46:56;100621.59;;;-5.79;86.17
67517;BME280;54359;59.124;37.910;2023-01-28T04:49:49;100644.06;;;-5.70;86.42
67517;BME280;54359;59.124;37.910;2023-01-28T04:52:25;100639.66;;;-5.73;85.95
67517;BME280;54359;59.124;37.910;2023-01-28T04:55:08;100646.91;;;-5.76;85.88
67517;BME280;54359;59.124;37.910;2023-01-28T04:57:36;100645.91;;;-5.78;85.13
67517;BME280;54359;59.124;37.910;2023-01-28T05:00:05;100651.25;;;-5.83;86.21
67517;BME280;54359;59.124;37.910;2023-01-28T05:02:31;100652.75;;;-5.86;85.62
67517;BME280;54359;59.124;37.910;2023-01-28T05:04:57;100637.59;;;-5.87;85.73
67517;BME280;54359;59.124;37.910;2023-01-28T05:07:44;100642.06;;;-5.74;86.19
67517;BME280;54359;59.124;37.910;2023-01-28T05:10:15;100646.81;;;-5.67;86.31
67517;BME280;54359;59.124;37.910;2023-01-28T05:12:43;100639.44;;;-5.66;85.39
67517;BME280;54359;59.124;37.910;2023-01-28T05:15:10;100638.09;;;-5.62;86.23
67517;BME280;54359;59.124;37.910;2023-01-28T05:17:36;100625.06;;;-5.68;85.59
67517;BME280;54359;59.124;37.910;2023-01-28T05:20:03;100633.09;;;-5.62;86.55
67517;BME280;54359;59.124;37.910;2023-01-28T05:22:29;100636.84;;;-5.57;85.75
67517;BME280;54359;59.124;37.910;2023-01-28T05:25:33;100628.59;;;-5.56;85.51
67517;BME280;54359;59.124;37.910;2023-01-28T05:28:05;100619.06;;;-5.60;86.01
67517;BME280;54359;59.124;37.910;2023-01-28T05:30:32;100633.34;;;-5.49;86.20
67517;BME280;54359;59.124;37.910;2023-01-28T05:32:58;100617.47;;;-5.49;85.79
67517;BME280;54359;59.124;37.910;2023-01-28T05:35:24;100631.75;;;-5.38;86.39
67517;BME280;54359;59.124;37.910;2023-01-28T05:37:51;100627.16;;;-5.33;86.18
67517;BME280;54359;59.124;37.910;2023-01-28T05:40:17;100622.25;;;-5.32;86.01
67517;BME280;54359;59.124;37.910;2023-01-28T05:42:43;100621.22;;;-5.34;85.62
67517;BME280;54359;59.124;37.910;2023-01-28T05:45:27;100616.97;;;-5.45;85.53
67517;BME280;54359;59.124;37.910;2023-01-28T05:48:03;100626.34;;;-5.42;85.72
67517;BME280;54359;59.124;37.910;2023-01-28T05:50:42;100628.59;;;-5.56;85.83
67517;BME280;54359;59.124;37.910;2023-01-28T05:53:15;100629.47;;;-5.55;85.65
67517;BME280;54359;59.124;37.910;2023-01-28T05:55:47;100624.44;;;-5.66;85.98
67517;BME280;54359;59.124;37.910;2023-01-28T05:58:13;100633.69;;;-5.64;85.74
67517;BME280;54359;59.124;37.910;2023-01-28T06:00:39;100636.66;;;-5.69;85.12
67517;BME280;54359;59.124;37.910;2023-01-28T06:03:05;100634.88;;;-5.80;85.59
67517;BME280;54359;59.124;37.910;2023-01-28T06:05:33;100633.75;;;-5.83;86.15
67517;BME280;54359;59.124;37.910;2023-01-28T06:08:00;100640.63;;;-5.81;85.26
67517;BME280;54359;59.124;37.910;2023-01-28T06:10:25;100625.84;;;-5.88;86.53
67517;BME280;54359;59.124;37.910;2023-01-28T06:12:52;100630.88;;;-5.78;86.45
67517;BME280;54359;59.124;37.910;2023-01-28T06:15:42;100634.06;;;-5.70;86.03
67517;BME280;54359;59.124;37.910;2023-01-28T06:18:18;100617.50;;;-5.78;85.32
67517;BME280;54359;59.124;37.910;2023-01-28T06:20:45;100631.03;;;-5.76;85.52
67517;BME280;54359;59.124;37.910;2023-01-28T06:23:10;100624.00;;;-5.80;85.63
67517;BME280;54359;59.124;37.910;2023-01-28T06:25:40;100624.72;;;-5.81;85.27
67517;BME280;54359;59.124;37.910;2023-01-28T06:28:11;100625.59;;;-5.81;86.03
67517;BME280;54359;59.124;37.910;2023-01-28T06:30:38;100626.75;;;-5.77;86.02
67517;BME280;54359;59.124;37.910;2023-01-28T06:33:04;100629.63;;;-5.73;85.42
67517;BME280;54359;59.124;37.910;2023-01-28T06:35:30;100613.22;;;-5.79;86.54
67517;BME280;54359;59.124;37.910;2023-01-28T06:37:57;100633.16;;;-5.71;86.16
67517;BME280;54359;59.124;37.910;2023-01-28T06:40:23;100629.91;;;-5.70;85.81
67517;BME280;54359;59.124;37.910;2023-01-28T06:42:50;100635.06;;;-5.68;86.02
67517;BME280;54359;59.124;37.910;2023-01-28T06:45:16;100626.53;;;-5.70;85.91
67517;BME280;54359;59.124;37.910;2023-01-28T06:47:43;100642.47;;;-5.59;85.39
67517;BME280;54359;59.124;37.910;2023-01-28T06:50:11;100647.63;;;-5.58;86.01
67517;BME280;54359;59.124;37.910;2023-01-28T06:52:48;100654.91;;;-5.51;86.11
67517;BME280;54359;59.124;37.910;2023-01-28T06:55:14;100652.19;;;-5.43;85.93
67517;BME280;54359;59.124;37.910;2023-01-28T06:57:41;100635.88;;;-5.49;86.44
67517;BME280;54359;59.124;37.910;2023-01-28T07:00:10;100650.53;;;-5.43;86.22
67517;BME280;54359;59.124;37.910;2023-01-28T07:02:38;100640.66;;;-5.41;86.51
67517;BME280;54359;59.124;37.910;2023-01-28T07:05:05;100650.19;;;-5.37;85.69
67517;BME280;54359;59.124;37.910;2023-01-28T07:07:31;100655.19;;;-5.37;86.46
67517;BME280;54359;59.124;37.910;2023-01-28T07:09:57;100642.78;;;-5.36;86.13
67517;BME280;54359;59.124;37.910;2023-01-28T07:12:24;100632.50;;;-5.39;86.37
67517;BME280;54359;59.124;37.910;2023-01-28T07:14:49;100638.41;;;-5.28;85.94
67517;BME280;54359;59.124;37.910;2023-01-28T07:17:17;100651.22;;;-5.25;85.42
67517;BME280;54359;59.124;37.910;2023-01-28T07:19:44;100636.91;;;-5.36;85.59
67517;BME280;54359;59.124;37.910;2023-01-28T07:22:11;100645.94;;;-5.28;86.34
67517;BME280;54359;59.124;37.910;2023-01-28T07:24:58;100646.31;;;-5.23;86.24
67517;BME280;54359;59.124;37.910;2023-01-28T07:27:26;100635.69;;;-5.21;86.59
67517;BME280;54359;59.124;37.910;2023-01-28T07:29:53;100643.72;;;-5.15;86.55
67517;BME280;54359;59.124;37.910;2023-01-28T07:32:22;100646.31;;;-5.13;85.63
67517;BME280;54359;59.124;37.910;2023-01-28T07:34:53;100627.53;;;-5.18;86.48
67517;BME280;54359;59.124;37.910;2023-01-28T07:37:19;100646.84;;;-5.07;85.77
67517;BME280;54359;59.124;37.910;2023-01-28T07:39:46;100655.25;;;-5.07;85.81
67517;BME280;54359;59.124;37.910;2023-01-28T07:42:12;100641.31;;;-5.13;85.97
67517;BME280;54359;59.124;37.910;2023-01-28T07:44:46;100638.72;;;-5.15;86.03
67517;BME280;54359;59.124;37.910;2023-01-28T07:47:16;100638.06;;;-5.12;86.03
67517;BME280;54359;59.124;37.910;2023-01-28T07:49:42;100642.09;;;-5.04;85.70
67517;BME280;54359;59.124;37.910;2023-01-28T07:52:08;100644.59;;;-5.04;86.25
67517;BME280;54359;59.124;37.910;2023-01-28T07:54:35;100644.09;;;-5.00;85.81
67517;BME280;54359;59.124;37.910;2023-01-28T07:57:00;100631.69;;;-5.09;85.82
67517;BME280;54359;59.124;37.910;2023-01-28T07:59:26;100638.22;;;-5.11;85.21
67517;BME280;54359;59.124;37.910;2023-01-28T08:01:52;100621.88;;;-5.26;86.26
67517;BME280;54359;59.124;37.910;2023-01-28T08:04:22;100641.44;;;-5.22;85.56
67517;BME280;54359;59.124;37.910;2023-01-28T08:06:48;100647.94;;;-5.24;86.04
67517;BME280;54359;59.124;37.910;2023-01-28T08:09:18;100650.94;;;-5.28;85.89
67517;BME280;54359;59.124;37.910;2023-01-28T08:11:44;100635.88;;;-5.38;85.58
67517;BME280;54359;59.124;37.910;2023-01-28T08:14:10;100653.94;;;-5.32;85.28
67517;BME280;54359;59.124;37.910;2023-01-28T08:16:39;100653.69;;;-5.35;85.53
67517;BME280;54359;59.124;37.910;2023-01-28T08:19:07;100649.69;;;-5.33;85.42
67517;BME280;54359;59.124;37.910;2023-01-28T08:21:35;100636.28;;;-5.34;86.08
67517;BME280;54359;59.124;37.910;2023-01-28T08:24:02;100648.81;;;-5.23;85.84
67517;BME280;54359;59.124;37.910;2023-01-28T08:26:31;100638.94;;;-5.22;85.58
67517;BME280;54359;59.124;37.910;2023-01-28T08:28:57;100624.53;;;-5.24;86.35
67517;BME280;54359;59.124;37.910;2023-01-28T08:31:26;100588.78;;;-5.42;85.83
67517;BME280;54359;59.124;37.910;2023-01-28T08:33:53;100618.38;;;-5.28;85.39
67517;BME280;54359;59.124;37.910;2023-01-28T08:36:18;100612.34;;;-5.30;86.12
67517;BME280;54359;59.124;37.910;2023-01-28T08:38:44;100613.13;;;-5.21;86.24
67517;BME280;54359;59.124;37.910;2023-01-28T08:41:10;100578.41;;;-5.37;85.94
67517;BME280;54359;59.124;37.910;2023-01-28T08:43:43;100595.97;;;-5.27;85.79
67517;BME280;54359;59.124;37.910;2023-01-28T08:46:21;100589.69;;;-5.21;86.23
67517;BME280;54359;59.124;37.910;2023-01-28T08:48:49;100604.22;;;-5.07;85.96
67517;BME280;54359;59.124;37.910;2023-01-28T08:51:15;100591.09;;;-5.04;86.43
67517;BME280;54359;59.124;37.910;2023-01-28T08:53:41;100582.31;;;-4.99;86.07
67517;BME280;54359;59.124;37.910;2023-01-28T08:56:07;100602.13;;;-4.92;85.69
67517;BME280;54359;59.124;37.910;2023-01-28T08:58:32;100602.88;;;-4.93;85.58
67517;BME280;54359;59.124;37.910;2023-01-28T09:01:03;100588.09;;;-5.00;85.43
67517;BME280;54359;59.124;37.910;2023-01-28T09:03:32;100582.06;;;-5.02;85.41
67517;BME280;54359;59.124;37.910;2023-01-28T09:06:04;100592.84;;;-4.93;85.98
67517;BME280;54359;59.124;37.910;2023-01-28T09:08:32;100571.16;;;-5.03;85.69
67517;BME280;54359;59.124;37.910;2023-01-28T09:10:58;100564.25;;;-5.06;85.60
67517;BME280;54359;59.124;37.910;2023-01-28T09:13:25;100566.03;;;-5.04;85.64
67517;BME280;54359;59.124;37.910;2023-01-28T09:15:54;100565.53;;;-5.00;85.97
67517;BME280;54359;59.124;37.910;2023-01-28T09:18:23;100551.34;;;-5.00;85.48
67517;BME280;54359;59.124;37.910;2023-01-28T09:20:49;100554.09;;;-4.87;86.17
67517;BME280;54359;59.124;37.910;2023-01-28T09:23:16;100540.94;;;-4.84;85.71
67517;BME280;54359;59.124;37.910;2023-01-28T09:25:45;100552.34;;;-4.77;85.53
67517;BME280;54359;59.124;37.910;2023-01-28T09:28:11;100537.53;;;-4.85;85.59
67517;BME280;54359;59.124;37.910;2023-01-28T09:30:43;100550.47;;;-4.80;85.49
67517;BME280;54359;59.124;37.910;2023-01-28T09:33:11;100541.19;;;-4.81;84.94
67517;BME280;54359;59.124;37.910;2023-01-28T09:35:36;100545.47;;;-4.80;85.80
67517;BME280;54359;59.124;37.910;2023-01-28T09:38:05;100512.63;;;-4.93;85.72
67517;BME280;54359;59.124;37.910;2023-01-28T09:40:42;100504.75;;;-5.08;84.86
67517;BME280;54359;59.124;37.910;2023-01-28T09:46:15;100514.75;;;-4.98;85.70
67517;BME280;54359;59.124;37.910;2023-01-28T09:48:48;100516.63;;;-4.95;85.92
67517;BME280;54359;59.124;37.910;2023-01-28T09:51:31;100527.41;;;-4.86;85.85
67517;BME280;54359;59.124;37.910;2023-01-28T09:57:22;100517.00;;;-5.11;85.66
67517;BME280;54359;59.124;37.910;2023-01-28T09:59:50;100517.50;;;-5.15;85.56
67517;BME280;54359;59.124;37.910;2023-01-28T10:14:27;100491.06;;;-5.01;85.58
67517;BME280;54359;59.124;37.910;2023-01-28T10:17:31;100485.81;;;-5.04;85.43
67517;BME280;54359;59.124;37.910;2023-01-28T10:26:32;100477.78;;;-5.00;85.81
67517;BME280;54359;59.124;37.910;2023-01-28T10:29:08;100467.28;;;-5.07;85.55
67517;BME280;54359;59.124;37.910;2023-01-28T10:32:27;100469.28;;;-5.13;85.44
67517;BME280;54359;59.124;37.910;2023-01-28T10:34:36;100472.41;;;-5.15;85.70
67517;BME280;54359;59.124;37.910;2023-01-28T10:37:13;100459.50;;;-5.10;86.19
67517;BME280;54359;59.124;37.910;2023-01-28T10:39:44;100454.97;;;-4.93;86.05
67517;BME280;54359;59.124;37.910;2023-01-28T10:42:29;100454.06;;;-4.83;85.38
67517;BME280;54359;59.124;37.910;2023-01-28T10:45:19;100448.28;;;-4.82;85.63
67517;BME280;54359;59.124;37.910;2023-01-28T10:51:28;100448.06;;;-4.96;84.79
67517;BME280;54359;59.124;37.910;2023-01-28T10:54:22;100438.19;;;-5.04;85.39
67517;BME280;54359;59.124;37.910;2023-01-28T10:57:01;100438.19;;;-5.04;84.92
67517;BME280;54359;59.124;37.910;2023-01-28T10:59:32;100434.19;;;-5.02;85.64
67517;BME280;54359;59.124;37.910;2023-01-28T11:02:36;100420.00;;;-5.02;85.80
67517;BME280;54359;59.124;37.910;2023-01-28T11:05:20;100421.16;;;-4.98;85.19
67517;BME280;54359;59.124;37.910;2023-01-28T11:07:47;100426.03;;;-5.00;84.59
67517;BME280;54359;59.124;37.910;2023-01-28T11:10:25;100416.19;;;-5.19;84.57
67517;BME280;54359;59.124;37.910;2023-01-28T11:12:57;100411.91;;;-5.30;85.21
67517;BME280;54359;59.124;37.910;2023-01-28T11:15:25;100400.28;;;-5.40;85.08
67517;BME280;54359;59.124;37.910;2023-01-28T11:18:03;100429.22;;;-5.33;85.38
67517;BME280;54359;59.124;37.910;2023-01-28T11:20:37;100419.59;;;-5.39;84.98
67517;BME280;54359;59.124;37.910;2023-01-28T11:23:23;100411.22;;;-5.50;85.86
67517;BME280;54359;59.124;37.910;2023-01-28T11:26:00;100401.31;;;-5.58;85.42
67517;BME280;54359;59.124;37.910;2023-01-28T11:28:32;100422.84;;;-5.60;85.31
67517;BME280;54359;59.124;37.910;2023-01-28T11:31:01;100409.81;;;-5.67;85.73
67517;BME280;54359;59.124;37.910;2023-01-28T11:33:53;100409.22;;;-5.74;84.81
67517;BME280;54359;59.124;37.910;2023-01-28T11:39:43;100393.06;;;-5.68;86.17
67517;BME280;54359;59.124;37.910;2023-01-28T11:41:58;100393.69;;;-5.60;85.92
67517;BME280;54359;59.124;37.910;2023-01-28T11:44:53;100394.28;;;-5.62;85.32
67517;BME280;54359;59.124;37.910;2023-01-28T12:01:12;100392.28;;;-5.87;85.00
67517;BME280;54359;59.124;37.910;2023-01-28T12:04:00;100392.94;;;-5.90;85.57
67517;BME280;54359;59.124;37.910;2023-01-28T12:07:02;100395.94;;;-5.83;86.23
67517;BME280;54359;59.124;37.910;2023-01-28T12:17:32;100396.19;;;-5.80;85.63
67517;BME280;54359;59.124;37.910;2023-01-28T12:28:20;100370.53;;;-5.78;86.26
67517;BME280;54359;59.124;37.910;2023-01-28T12:31:19;100370.91;;;-5.73;85.29
67517;BME280;54359;59.124;37.910;2023-01-28T12:42:19;100376.53;;;-5.66;86.17
67517;BME280;54359;59.124;37.910;2023-01-28T12:44:53;100362.75;;;-5.71;85.57
67517;BME280;54359;59.124;37.910;2023-01-28T12:47:26;100368.75;;;-5.69;85.49
67517;BME280;54359;59.124;37.910;2023-01-28T12:50:28;100375.28;;;-5.71;85.35
67517;BME280;54359;59.124;37.910;2023-01-28T12:55:55;100371.16;;;-5.80;85.15
67517;BME280;54359;59.124;37.910;2023-01-28T13:01:43;100363.75;;;-5.89;85.85
67517;BME280;54359;59.124;37.910;2023-01-28T13:04:38;100361.56;;;-5.96;84.52
67517;BME280;54359;59.124;37.910;2023-01-28T13:09:53;100351.41;;;-6.18;85.71
67517;BME280;54359;59.124;37.910;2023-01-28T13:12:23;100342.91;;;-6.20;85.54
67517;BME280;54359;59.124;37.910;2023-01-28T13:14:50;100336.25;;;-6.30;85.84
67517;BME280;54359;59.124;37.910;2023-01-28T13:17:28;100344.16;;;-6.25;85.00
67517;BME280;54359;59.124;37.910;2023-01-28T13:19:55;100339.38;;;-6.22;85.77
67517;BME280;54359;59.124;37.910;2023-01-28T13:22:33;100330.16;;;-6.23;85.00
67517;BME280;54359;59.124;37.910;2023-01-28T13:25:34;100334.88;;;-6.16;85.56
67517;BME280;54359;59.124;37.910;2023-01-28T13:28:05;100322.38;;;-6.27;84.82
67517;BME280;54359;59.124;37.910;2023-01-28T13:30:46;100326.25;;;-6.20;85.07
67517;BME280;54359;59.124;37.910;2023-01-28T13:33:28;100325.16;;;-6.23;84.65
67517;BME280;54359;59.124;37.910;2023-01-28T13:35:54;100315.50;;;-6.29;85.68
67517;BME280;54359;59.124;37.910;2023-01-28T13:38:20;100315.13;;;-6.34;85.04
67517;BME280;54359;59.124;37.910;2023-01-28T13:40:58;100311.88;;;-6.33;84.97
67517;BME280;54359;59.124;37.910;2023-01-28T13:43:38;100319.38;;;-6.33;86.07
67517;BME280;54359;59.124;37.910;2023-01-28T13:46:24;100303.22;;;-6.36;85.11
67517;BME280;54359;59.124;37.910;2023-01-28T13:48:54;100302.34;;;-6.37;85.15
67517;BME280;54359;59.124;37.910;2023-01-28T13:51:30;100297.84;;;-6.41;85.10
67517;BME280;54359;59.124;37.910;2023-01-28T13:54:16;100299.22;;;-6.34;86.31
67517;BME280;54359;59.124;37.910;2023-01-28T13:57:10;100303.63;;;-6.32;84.94
67517;BME280;54359;59.124;37.910;2023-01-28T14:00:18;100301.63;;;-6.25;85.62
67517;BME280;54359;59.124;37.910;2023-01-28T14:08:53;100287.50;;;-6.15;85.98
67517;BME280;54359;59.124;37.910;2023-01-28T14:20:00;100266.59;;;-6.15;84.93
67517;BME280;54359;59.124;37.910;2023-01-28T14:22:27;100273.34;;;-6.14;85.35
67517;BME280;54359;59.124;37.910;2023-01-28T14:25:00;100265.59;;;-6.17;85.36
67517;BME280;54359;59.124;37.910;2023-01-28T14:27:31;100261.72;;;-6.24;85.60
67517;BME280;54359;59.124;37.910;2023-01-28T14:32:45;100258.59;;;-6.21;85.83
67517;BME280;54359;59.124;37.910;2023-01-28T14:35:17;100239.97;;;-6.25;85.37
67517;BME280;54359;59.124;37.910;2023-01-28T14:37:44;100237.97;;;-6.19;85.13
67517;BME280;54359;59.124;37.910;2023-01-28T14:40:13;100224.97;;;-6.25;84.76
67517;BME280;54359;59.124;37.910;2023-01-28T14:42:44;100213.69;;;-6.30;85.69
67517;BME280;54359;59.124;37.910;2023-01-28T14:55:57;100227.59;;;-6.34;85.06
67517;BME280;54359;59.124;37.910;2023-01-28T14:59:20;100224.31;;;-6.33;86.02
67517;BME280;54359;59.124;37.910;2023-01-28T15:01:30;100213.97;;;-6.37;85.35
67517;BME280;54359;59.124;37.910;2023-01-28T15:03:57;100212.31;;;-6.37;85.41
67517;BME280;54359;59.124;37.910;2023-01-28T15:06:29;100216.97;;;-6.31;84.74
67517;BME280;54359;59.124;37.910;2023-01-28T15:09:08;100214.09;;;-6.36;86.15
67517;BME280;54359;59.124;37.910;2023-01-28T15:11:37;100211.31;;;-6.39;85.83
67517;BME280;54359;59.124;37.910;2023-01-28T15:14:12;100209.97;;;-6.45;86.00
67517;BME280;54359;59.124;37.910;2023-01-28T15:16:39;100202.84;;;-6.51;84.56
67517;BME280;54359;59.124;37.910;2023-01-28T15:19:07;100212.97;;;-6.50;85.65
67517;BME280;54359;59.124;37.910;2023-01-28T15:21:34;100220.47;;;-6.50;85.92
67517;BME280;54359;59.124;37.910;2023-01-28T15:24:00;100205.69;;;-6.57;84.94
67517;BME280;54359;59.124;37.910;2023-01-28T15:26:31;100204.97;;;-6.56;85.04